Weather at Merryfield RNAS Air Base

Public forecast

Using degrees Celsius for public forecast. Weather courtesy of forecast.io.

Closest aviation weather report (METAR) to Merryfield RNAS Air Base

Closest report is RNAS Yeovilton, 11.6 nm (21.4 km) ENE. Retrieved 2021/04/16 18:50 UTC (40 minutes ago):

EGDY 161850Z AUTO 03006KT 9999 BKN050/// 08/M00 Q1029

Closest aviation forecast (TAF) to Merryfield RNAS Air Base

Forecast is more than 12 hours old.

Closest forecast is RNAS Yeovilton, 11.6 nm (21.4 km) ENE. Retrieved 2020/10/05 06:30 UTC (6 months ago):

TAF TAF EGDY 051025Z 0506/0518 CNL